TAR45D DTTJ-LSGG
Flight info
| Callsign | TAR45D |
|---|---|
| Flight time | 2h 57m |
| Altitude | 24000 |
| Route | KBIRA1A KBIRA V334 NEDOS/N0465F400 UV334 TBK UM858 DOPEL DCT DEC DCT SUKUN DCT RUGOX DCT MADKA DCT AJO DCT OMEDA DCT MERLU DCT PIGOS/N0448F300 DCT BARSO/N0432F280 DCT IRMAR DCT KINES |
| Aircraft | A332/H-SDE3GHIJ2J3J5M1RVWXY/LB2D1 |
Departure
| Time | 2026-04-24 16:44 |
|---|---|
| Airport | Djerba Zarzis International Airport (DTTJ) |
Arrival
| Time | 2026-04-24 19:42 |
|---|---|
| Airport | Geneva International Airport (LSGG) |
| Time | Latitude | Longitude | Altitude | Speed | Heading |
|---|---|---|---|---|---|
| 2026-04-24 16:26 | 33.87339 | 10.77865 | 27 ft | 0 kts | 178° |
| 2026-04-24 16:35 | 33.87353 | 10.77864 | 27 ft | 4 kts | 185° |
| 2026-04-24 16:35 | 33.87378 | 10.77872 | 27 ft | 4 kts | 214° |
| 2026-04-24 16:36 | 33.87393 | 10.77894 | 27 ft | 4 kts | 261° |
| 2026-04-24 16:36 | 33.87394 | 10.77900 | 27 ft | 5 kts | 266° |
| 2026-04-24 16:40 | 33.87393 | 10.77873 | 27 ft | 8 kts | 268° |
| 2026-04-24 16:40 | 33.87391 | 10.77779 | 26 ft | 15 kts | 269° |
| 2026-04-24 16:41 | 33.87388 | 10.77621 | 30 ft | 22 kts | 268° |
| 2026-04-24 16:41 | 33.87383 | 10.77443 | 29 ft | 21 kts | 266° |
| 2026-04-24 16:41 | 33.87372 | 10.77275 | 28 ft | 19 kts | 261° |
| 2026-04-24 16:41 | 33.87366 | 10.77138 | 25 ft | 15 kts | 265° |
| 2026-04-24 16:42 | 33.87361 | 10.76994 | 29 ft | 18 kts | 268° |
| 2026-04-24 16:42 | 33.87358 | 10.76834 | 24 ft | 21 kts | 269° |
| 2026-04-24 16:42 | 33.87352 | 10.76651 | 26 ft | 23 kts | 268° |
| 2026-04-24 16:42 | 33.87347 | 10.76454 | 27 ft | 24 kts | 268° |
| 2026-04-24 16:43 | 33.87340 | 10.76245 | 22 ft | 26 kts | 268° |
| 2026-04-24 16:43 | 33.87371 | 10.76058 | 24 ft | 12 kts | 322° |
| 2026-04-24 16:43 | 33.87450 | 10.76049 | 23 ft | 13 kts | 5° |
| 2026-04-24 16:43 | 33.87502 | 10.76106 | 27 ft | 8 kts | 66° |
| 2026-04-24 16:44 | 33.87508 | 10.76254 | 23 ft | 43 kts | 88° |
| 2026-04-24 16:44 | 33.87524 | 10.76891 | 23 ft | 107 kts | 88° |
| 2026-04-24 16:44 | 33.87552 | 10.78015 | 97 ft | 154 kts | 87° |
| 2026-04-24 16:44 | 33.87570 | 10.79298 | 778 ft | 158 kts | 88° |
| 2026-04-24 16:45 | 33.87940 | 10.80467 | 1656 ft | 158 kts | 43° |
| 2026-04-24 16:45 | 33.89101 | 10.80844 | 2020 ft | 198 kts | 354° |
| 2026-04-24 16:45 | 33.90333 | 10.79943 | 2584 ft | 222 kts | 312° |
| 2026-04-24 16:45 | 33.91200 | 10.78388 | 3508 ft | 223 kts | 302° |
| 2026-04-24 16:46 | 33.92013 | 10.76818 | 4598 ft | 218 kts | 306° |
| 2026-04-24 16:46 | 33.92922 | 10.75389 | 5651 ft | 213 kts | 314° |
| 2026-04-24 16:46 | 33.93959 | 10.74121 | 6624 ft | 213 kts | 320° |
| 2026-04-24 16:46 | 33.95164 | 10.72970 | 7194 ft | 232 kts | 327° |
| 2026-04-24 16:47 | 33.96611 | 10.71926 | 7676 ft | 251 kts | 333° |
| 2026-04-24 16:47 | 33.98199 | 10.70973 | 8440 ft | 258 kts | 335° |
| 2026-04-24 16:47 | 33.99827 | 10.70028 | 9357 ft | 261 kts | 335° |
| 2026-04-24 16:47 | 34.01473 | 10.69074 | 10265 ft | 264 kts | 334° |
| 2026-04-24 16:48 | 34.03161 | 10.68092 | 10687 ft | 284 kts | 334° |
| 2026-04-24 16:48 | 34.05006 | 10.67015 | 11006 ft | 306 kts | 334° |
| 2026-04-24 16:48 | 34.06987 | 10.65857 | 11351 ft | 325 kts | 334° |
| 2026-04-24 16:48 | 34.09057 | 10.64644 | 11918 ft | 336 kts | 334° |
| 2026-04-24 16:49 | 34.11177 | 10.63401 | 12647 ft | 342 kts | 334° |
| 2026-04-24 16:49 | 34.13333 | 10.62136 | 13396 ft | 347 kts | 334° |
| 2026-04-24 16:49 | 34.15515 | 10.60854 | 14115 ft | 351 kts | 333° |
| 2026-04-24 16:49 | 34.17729 | 10.59553 | 14814 ft | 355 kts | 333° |
| 2026-04-24 16:50 | 34.19197 | 10.58691 | 15311 ft | 356 kts | 333° |
| 2026-04-24 16:50 | 34.22194 | 10.56928 | 16312 ft | 359 kts | 333° |
| 2026-04-24 16:50 | 34.24440 | 10.55606 | 17116 ft | 359 kts | 333° |
| 2026-04-24 16:50 | 34.26694 | 10.54277 | 17860 ft | 361 kts | 333° |
| 2026-04-24 16:51 | 34.28972 | 10.52931 | 18520 ft | 365 kts | 333° |
| 2026-04-24 16:51 | 34.31270 | 10.51571 | 19020 ft | 370 kts | 333° |
| 2026-04-24 16:51 | 34.33563 | 10.50214 | 19634 ft | 372 kts | 333° |
| 2026-04-24 16:51 | 34.35887 | 10.48838 | 20286 ft | 373 kts | 332° |
| 2026-04-24 16:52 | 34.38221 | 10.47455 | 20915 ft | 374 kts | 332° |
| 2026-04-24 16:52 | 34.40573 | 10.46060 | 21542 ft | 375 kts | 332° |
| 2026-04-24 16:52 | 34.42928 | 10.44663 | 22144 ft | 377 kts | 332° |
| 2026-04-24 16:52 | 34.45235 | 10.43295 | 22720 ft | 379 kts | 332° |
| 2026-04-24 16:53 | 34.47659 | 10.41855 | 23299 ft | 381 kts | 332° |
| 2026-04-24 16:53 | 34.50047 | 10.40454 | 23814 ft | 383 kts | 332° |
| 2026-04-24 16:53 | 34.52449 | 10.39038 | 24035 ft | 386 kts | 332° |
| 2026-04-24 16:53 | 34.54896 | 10.37577 | 24079 ft | 396 kts | 332° |
| 2026-04-24 16:54 | 34.57377 | 10.36091 | 24083 ft | 401 kts | 332° |
| 2026-04-24 16:54 | 34.59883 | 10.34589 | 24083 ft | 402 kts | 332° |
| 2026-04-24 16:54 | 34.62363 | 10.33105 | 24087 ft | 402 kts | 332° |
| 2026-04-24 16:54 | 34.64866 | 10.31609 | 24086 ft | 402 kts | 332° |
| 2026-04-24 16:55 | 34.67375 | 10.30110 | 24087 ft | 402 kts | 332° |
| 2026-04-24 16:55 | 34.69893 | 10.28606 | 24085 ft | 402 kts | 332° |
| 2026-04-24 16:55 | 34.72408 | 10.27103 | 24083 ft | 402 kts | 332° |
| 2026-04-24 16:55 | 34.74919 | 10.25601 | 24083 ft | 402 kts | 332° |
| 2026-04-24 16:56 | 34.77426 | 10.24100 | 24085 ft | 402 kts | 332° |
| 2026-04-24 16:56 | 34.79906 | 10.22615 | 24082 ft | 402 kts | 332° |
| 2026-04-24 16:56 | 34.82419 | 10.21109 | 24082 ft | 402 kts | 332° |
| 2026-04-24 16:56 | 34.84933 | 10.19600 | 24075 ft | 402 kts | 332° |
| 2026-04-24 16:57 | 34.87444 | 10.18093 | 24078 ft | 402 kts | 332° |
| 2026-04-24 16:57 | 34.89957 | 10.16582 | 24078 ft | 402 kts | 332° |
| 2026-04-24 16:57 | 34.92463 | 10.15077 | 24077 ft | 402 kts | 332° |
| 2026-04-24 16:57 | 34.94979 | 10.13563 | 24078 ft | 402 kts | 332° |
| 2026-04-24 16:58 | 34.97494 | 10.12049 | 24077 ft | 401 kts | 332° |
| 2026-04-24 16:58 | 34.99963 | 10.10563 | 24080 ft | 396 kts | 332° |
| 2026-04-24 16:58 | 35.02415 | 10.09085 | 24077 ft | 396 kts | 332° |
| 2026-04-24 16:58 | 35.04884 | 10.07595 | 24386 ft | 395 kts | 332° |
| 2026-04-24 16:59 | 35.07296 | 10.06139 | 24939 ft | 393 kts | 332° |
| 2026-04-24 16:59 | 35.09749 | 10.04657 | 25488 ft | 393 kts | 332° |
| 2026-04-24 16:59 | 35.14675 | 10.01675 | 26431 ft | 396 kts | 332° |
| 2026-04-24 17:00 | 35.17130 | 10.00128 | 26883 ft | 398 kts | 330° |
| 2026-04-24 17:00 | 35.22022 | 9.96895 | 27740 ft | 402 kts | 330° |
| 2026-04-24 17:00 | 35.24491 | 9.95237 | 28161 ft | 404 kts | 329° |
| 2026-04-24 17:01 | 35.29421 | 9.91929 | 28983 ft | 409 kts | 330° |
| 2026-04-24 17:01 | 35.31925 | 9.90256 | 29397 ft | 411 kts | 330° |
| 2026-04-24 17:02 | 35.36125 | 9.87455 | 30142 ft | 414 kts | 330° |
| 2026-04-24 17:02 | 35.39522 | 9.85191 | 30625 ft | 416 kts | 330° |
| 2026-04-24 17:02 | 35.41216 | 9.84062 | 30819 ft | 418 kts | 330° |
| 2026-04-24 17:02 | 35.43786 | 9.82347 | 31037 ft | 422 kts | 329° |
| 2026-04-24 17:03 | 35.49000 | 9.78861 | 31673 ft | 426 kts | 329° |
| 2026-04-24 17:03 | 35.51597 | 9.77125 | 32172 ft | 425 kts | 329° |
| 2026-04-24 17:03 | 35.54189 | 9.75390 | 32610 ft | 424 kts | 329° |
| 2026-04-24 17:04 | 35.56773 | 9.73658 | 33032 ft | 423 kts | 329° |
| 2026-04-24 17:04 | 35.61927 | 9.70199 | 33859 ft | 422 kts | 329° |
| 2026-04-24 17:04 | 35.64502 | 9.68470 | 34230 ft | 422 kts | 329° |
| 2026-04-24 17:05 | 35.67081 | 9.66736 | 34599 ft | 421 kts | 329° |
| 2026-04-24 17:05 | 35.69650 | 9.65007 | 34937 ft | 420 kts | 329° |
| 2026-04-24 17:05 | 35.74848 | 9.61710 | 35638 ft | 420 kts | 332° |
| 2026-04-24 17:06 | 35.77479 | 9.60158 | 35953 ft | 419 kts | 332° |
| 2026-04-24 17:06 | 35.82759 | 9.57095 | 36581 ft | 419 kts | 332° |
| 2026-04-24 17:06 | 35.85357 | 9.55582 | 36881 ft | 418 kts | 332° |
| 2026-04-24 17:07 | 35.87988 | 9.54041 | 37190 ft | 418 kts | 332° |
| 2026-04-24 17:07 | 35.90620 | 9.52491 | 37431 ft | 419 kts | 332° |
| 2026-04-24 17:07 | 35.95881 | 9.49386 | 37996 ft | 419 kts | 332° |
| 2026-04-24 17:08 | 36.01149 | 9.46276 | 38566 ft | 419 kts | 332° |
| 2026-04-24 17:08 | 36.03775 | 9.44725 | 38831 ft | 418 kts | 332° |
| 2026-04-24 17:08 | 36.06401 | 9.43174 | 39064 ft | 417 kts | 332° |
| 2026-04-24 17:09 | 36.11648 | 9.40070 | 39409 ft | 419 kts | 332° |
| 2026-04-24 17:09 | 36.16885 | 9.36966 | 39733 ft | 421 kts | 332° |
| 2026-04-24 17:10 | 36.19530 | 9.35397 | 39890 ft | 422 kts | 332° |
| 2026-04-24 17:10 | 36.27512 | 9.30654 | 40065 ft | 425 kts | 332° |
| 2026-04-24 17:12 | 36.48880 | 9.17904 | 40058 ft | 428 kts | 332° |
| 2026-04-24 18:54 | 46.01167 | 6.57375 | 20137 ft | 289 kts | 348° |
| 2026-04-24 18:55 | 46.05127 | 6.56268 | 20133 ft | 290 kts | 352° |
| 2026-04-24 18:55 | 46.07130 | 6.56373 | 20133 ft | 289 kts | 16° |
| 2026-04-24 18:55 | 46.08880 | 6.57694 | 20134 ft | 284 kts | 45° |
| 2026-04-24 18:56 | 46.09971 | 6.60002 | 20134 ft | 279 kts | 73° |
| 2026-04-24 18:56 | 46.10203 | 6.62732 | 20137 ft | 274 kts | 100° |
| 2026-04-24 18:56 | 46.09598 | 6.65290 | 20138 ft | 270 kts | 125° |
| 2026-04-24 18:56 | 46.08309 | 6.67215 | 20136 ft | 267 kts | 149° |
| 2026-04-24 18:57 | 46.06628 | 6.68223 | 20148 ft | 266 kts | 166° |
| 2026-04-24 18:57 | 46.04818 | 6.68838 | 20151 ft | 268 kts | 168° |
| 2026-04-24 18:57 | 46.02998 | 6.69440 | 20149 ft | 268 kts | 167° |
| 2026-04-24 18:57 | 46.01178 | 6.70055 | 20148 ft | 269 kts | 168° |
| 2026-04-24 18:58 | 45.99343 | 6.70614 | 20143 ft | 269 kts | 172° |
| 2026-04-24 18:58 | 45.97484 | 6.70565 | 20146 ft | 268 kts | 194° |
| 2026-04-24 18:58 | 45.95839 | 6.69364 | 20149 ft | 268 kts | 221° |
| 2026-04-24 18:58 | 45.94734 | 6.67203 | 20149 ft | 272 kts | 245° |
| 2026-04-24 18:59 | 45.94325 | 6.64549 | 20139 ft | 276 kts | 269° |
| 2026-04-24 18:59 | 45.94742 | 6.61860 | 20138 ft | 279 kts | 295° |
| 2026-04-24 18:59 | 45.95953 | 6.59688 | 20141 ft | 282 kts | 322° |
| 2026-04-24 18:59 | 45.97718 | 6.58464 | 20147 ft | 284 kts | 343° |
| 2026-04-24 19:00 | 45.99654 | 6.57809 | 20140 ft | 287 kts | 348° |
| 2026-04-24 19:00 | 46.01627 | 6.57245 | 20139 ft | 290 kts | 348° |
| 2026-04-24 19:00 | 46.03601 | 6.56677 | 20143 ft | 290 kts | 348° |
| 2026-04-24 19:00 | 46.05572 | 6.56200 | 20131 ft | 291 kts | 356° |
| 2026-04-24 19:01 | 46.07581 | 6.56571 | 20135 ft | 288 kts | 22° |
| 2026-04-24 19:01 | 46.09189 | 6.58134 | 20134 ft | 283 kts | 51° |
| 2026-04-24 19:01 | 46.10100 | 6.60590 | 20135 ft | 278 kts | 79° |
| 2026-04-24 19:01 | 46.10138 | 6.63336 | 20135 ft | 273 kts | 105° |
| 2026-04-24 19:02 | 46.09696 | 6.65052 | 20137 ft | 271 kts | 122° |
| 2026-04-24 19:02 | 46.07959 | 6.67517 | 20132 ft | 266 kts | 155° |
| 2026-04-24 19:02 | 46.06210 | 6.68386 | 20149 ft | 266 kts | 167° |
| 2026-04-24 19:02 | 46.04392 | 6.68979 | 20150 ft | 268 kts | 168° |
| 2026-04-24 19:03 | 46.02575 | 6.69585 | 20149 ft | 268 kts | 167° |
| 2026-04-24 19:03 | 46.00754 | 6.70194 | 20148 ft | 269 kts | 168° |
| 2026-04-24 19:03 | 45.98917 | 6.70687 | 20147 ft | 268 kts | 176° |
| 2026-04-24 19:03 | 45.97100 | 6.70410 | 20148 ft | 267 kts | 199° |
| 2026-04-24 19:04 | 45.95555 | 6.68965 | 20151 ft | 269 kts | 227° |
| 2026-04-24 19:04 | 45.94584 | 6.66660 | 20151 ft | 273 kts | 250° |
| 2026-04-24 19:04 | 45.94342 | 6.63951 | 20142 ft | 277 kts | 275° |
| 2026-04-24 19:04 | 45.94940 | 6.61331 | 20141 ft | 280 kts | 301° |
| 2026-04-24 19:05 | 45.96297 | 6.59337 | 20140 ft | 283 kts | 328° |
| 2026-04-24 19:05 | 45.98125 | 6.58304 | 20146 ft | 285 kts | 345° |
| 2026-04-24 19:05 | 46.00071 | 6.57689 | 20137 ft | 288 kts | 348° |
| 2026-04-24 19:05 | 46.02047 | 6.57126 | 20137 ft | 290 kts | 348° |
| 2026-04-24 19:06 | 46.04032 | 6.56552 | 20138 ft | 290 kts | 348° |
| 2026-04-24 19:06 | 46.06031 | 6.56178 | 20133 ft | 290 kts | 1° |
| 2026-04-24 19:06 | 46.07972 | 6.56814 | 20134 ft | 287 kts | 29° |
| 2026-04-24 19:06 | 46.09468 | 6.58635 | 20134 ft | 282 kts | 58° |
| 2026-04-24 19:07 | 46.10186 | 6.61208 | 20135 ft | 277 kts | 85° |
| 2026-04-24 19:07 | 46.10033 | 6.63924 | 20136 ft | 272 kts | 111° |
| 2026-04-24 19:07 | 46.09492 | 6.65536 | 20136 ft | 270 kts | 127° |
| 2026-04-24 19:07 | 46.07586 | 6.67773 | 20135 ft | 266 kts | 159° |
| 2026-04-24 19:08 | 46.05814 | 6.68528 | 20145 ft | 267 kts | 168° |
| 2026-04-24 19:08 | 46.03996 | 6.69110 | 20149 ft | 268 kts | 168° |
| 2026-04-24 19:08 | 46.02178 | 6.69720 | 20147 ft | 268 kts | 167° |
| 2026-04-24 19:08 | 46.00359 | 6.70324 | 20149 ft | 269 kts | 168° |
| 2026-04-24 19:09 | 45.98514 | 6.70717 | 20145 ft | 268 kts | 180° |
| 2026-04-24 19:09 | 45.96703 | 6.70189 | 20145 ft | 267 kts | 206° |
| 2026-04-24 19:09 | 45.95277 | 6.68503 | 20149 ft | 270 kts | 232° |
| 2026-04-24 19:09 | 45.94461 | 6.66075 | 20146 ft | 274 kts | 256° |
| 2026-04-24 19:10 | 45.94404 | 6.63334 | 20140 ft | 278 kts | 281° |
| 2026-04-24 19:10 | 45.95188 | 6.60805 | 20141 ft | 281 kts | 307° |
| 2026-04-24 19:10 | 45.96685 | 6.59022 | 20139 ft | 283 kts | 334° |
| 2026-04-24 19:10 | 45.98563 | 6.58149 | 20141 ft | 286 kts | 346° |
| 2026-04-24 19:11 | 46.00496 | 6.57566 | 20138 ft | 289 kts | 348° |
| 2026-04-24 19:11 | 46.02471 | 6.57004 | 20138 ft | 290 kts | 348° |
| 2026-04-24 19:11 | 46.04453 | 6.56431 | 20134 ft | 290 kts | 348° |
| 2026-04-24 19:11 | 46.06464 | 6.56209 | 20135 ft | 290 kts | 7° |
| 2026-04-24 19:12 | 46.08347 | 6.57117 | 20136 ft | 286 kts | 35° |
| 2026-04-24 19:12 | 46.09699 | 6.59158 | 20134 ft | 281 kts | 64° |
| 2026-04-24 19:12 | 46.10245 | 6.61820 | 19983 ft | 278 kts | 90° |
| 2026-04-24 19:12 | 46.09919 | 6.64509 | 19748 ft | 271 kts | 117° |
| 2026-04-24 19:13 | 46.09247 | 6.66001 | 19590 ft | 267 kts | 136° |
| 2026-04-24 19:13 | 46.07153 | 6.67780 | 19288 ft | 263 kts | 165° |
| 2026-04-24 19:13 | 46.05388 | 6.68344 | 19057 ft | 263 kts | 170° |
| 2026-04-24 19:13 | 46.03584 | 6.68832 | 18834 ft | 264 kts | 169° |
| 2026-04-24 19:14 | 46.01778 | 6.69356 | 18594 ft | 264 kts | 169° |
| 2026-04-24 19:14 | 45.99978 | 6.69884 | 18357 ft | 263 kts | 171° |
| 2026-04-24 19:14 | 45.98166 | 6.69994 | 18160 ft | 260 kts | 190° |
| 2026-04-24 19:14 | 45.96505 | 6.69034 | 18144 ft | 260 kts | 217° |
| 2026-04-24 19:15 | 45.95318 | 6.67080 | 18153 ft | 263 kts | 241° |
| 2026-04-24 19:15 | 45.94782 | 6.64566 | 18139 ft | 267 kts | 265° |
| 2026-04-24 19:15 | 45.95043 | 6.61941 | 18139 ft | 270 kts | 291° |
| 2026-04-24 19:15 | 45.96118 | 6.59738 | 18141 ft | 273 kts | 319° |
| 2026-04-24 19:16 | 45.99653 | 6.57804 | 18142 ft | 279 kts | 348° |
| 2026-04-24 19:16 | 46.01540 | 6.57265 | 18139 ft | 280 kts | 348° |
| 2026-04-24 19:16 | 46.03457 | 6.56717 | 18143 ft | 281 kts | 348° |
| 2026-04-24 19:17 | 46.05381 | 6.56224 | 18133 ft | 281 kts | 355° |
| 2026-04-24 19:17 | 46.07314 | 6.56510 | 18133 ft | 280 kts | 21° |
| 2026-04-24 19:17 | 46.08910 | 6.58027 | 18135 ft | 275 kts | 51° |
| 2026-04-24 19:17 | 46.09765 | 6.60442 | 18136 ft | 270 kts | 82° |
| 2026-04-24 19:18 | 46.09721 | 6.63097 | 18135 ft | 265 kts | 108° |
| 2026-04-24 19:18 | 46.08865 | 6.65407 | 18137 ft | 261 kts | 134° |
| 2026-04-24 19:18 | 46.07432 | 6.66903 | 18139 ft | 258 kts | 159° |
| 2026-04-24 19:18 | 46.05714 | 6.67642 | 18147 ft | 259 kts | 168° |
| 2026-04-24 19:19 | 46.03942 | 6.68201 | 18155 ft | 261 kts | 168° |
| 2026-04-24 19:19 | 46.02170 | 6.68774 | 18150 ft | 261 kts | 167° |
| 2026-04-24 19:19 | 46.00397 | 6.69370 | 18150 ft | 261 kts | 168° |
| 2026-04-24 19:19 | 45.98598 | 6.69737 | 18141 ft | 261 kts | 182° |
| 2026-04-24 19:20 | 45.97417 | 6.69479 | 18142 ft | 260 kts | 198° |
| 2026-04-24 19:20 | 45.95903 | 6.68105 | 18148 ft | 261 kts | 227° |
| 2026-04-24 19:20 | 45.94993 | 6.65857 | 18151 ft | 264 kts | 252° |
| 2026-04-24 19:20 | 45.94829 | 6.63221 | 18141 ft | 272 kts | 277° |
| 2026-04-24 19:21 | 45.95547 | 6.60644 | 18147 ft | 287 kts | 307° |
| 2026-04-24 19:21 | 45.97139 | 6.58906 | 18145 ft | 293 kts | 337° |
| 2026-04-24 19:21 | 45.99103 | 6.58043 | 17842 ft | 298 kts | 346° |
| 2026-04-24 19:21 | 46.01151 | 6.57405 | 17427 ft | 300 kts | 347° |
| 2026-04-24 19:22 | 46.03187 | 6.56808 | 17153 ft | 297 kts | 348° |
| 2026-04-24 19:22 | 46.05200 | 6.56179 | 16840 ft | 296 kts | 343° |
| 2026-04-24 19:22 | 46.07003 | 6.54814 | 16450 ft | 294 kts | 315° |
| 2026-04-24 19:22 | 46.08070 | 6.52383 | 16143 ft | 287 kts | 287° |
| 2026-04-24 19:23 | 46.08647 | 6.49637 | 15813 ft | 286 kts | 289° |
| 2026-04-24 19:23 | 46.09534 | 6.47121 | 15552 ft | 285 kts | 300° |
| 2026-04-24 19:23 | 46.10608 | 6.44735 | 15253 ft | 284 kts | 303° |
| 2026-04-24 19:23 | 46.11716 | 6.42381 | 14949 ft | 283 kts | 303° |
| 2026-04-24 19:24 | 46.12823 | 6.40044 | 14658 ft | 281 kts | 303° |
| 2026-04-24 19:24 | 46.13920 | 6.37722 | 14359 ft | 279 kts | 303° |
| 2026-04-24 19:24 | 46.15012 | 6.35409 | 14121 ft | 276 kts | 303° |
| 2026-04-24 19:24 | 46.16082 | 6.33136 | 13866 ft | 273 kts | 303° |
| 2026-04-24 19:25 | 46.17142 | 6.30884 | 13482 ft | 275 kts | 303° |
| 2026-04-24 19:25 | 46.18422 | 6.28851 | 13091 ft | 277 kts | 325° |
| 2026-04-24 19:25 | 46.20233 | 6.27967 | 12684 ft | 279 kts | 359° |
| 2026-04-24 19:25 | 46.22086 | 6.28654 | 12332 ft | 279 kts | 32° |
| 2026-04-24 19:26 | 46.23545 | 6.30492 | 11964 ft | 279 kts | 47° |
| 2026-04-24 19:26 | 46.24858 | 6.32564 | 11600 ft | 280 kts | 48° |
| 2026-04-24 19:26 | 46.26175 | 6.34644 | 11230 ft | 280 kts | 47° |
| 2026-04-24 19:26 | 46.27512 | 6.36702 | 10864 ft | 281 kts | 46° |
| 2026-04-24 19:27 | 46.28863 | 6.38744 | 10505 ft | 281 kts | 46° |
| 2026-04-24 19:27 | 46.30222 | 6.40777 | 10142 ft | 281 kts | 45° |
| 2026-04-24 19:27 | 46.31562 | 6.42774 | 9768 ft | 276 kts | 45° |
| 2026-04-24 19:27 | 46.32880 | 6.44735 | 9378 ft | 266 kts | 45° |
| 2026-04-24 19:28 | 46.34150 | 6.46623 | 8982 ft | 258 kts | 45° |
| 2026-04-24 19:28 | 46.35379 | 6.48448 | 8617 ft | 248 kts | 45° |
| 2026-04-24 19:28 | 46.36567 | 6.50214 | 8269 ft | 241 kts | 45° |
| 2026-04-24 19:28 | 46.37719 | 6.51926 | 8133 ft | 232 kts | 45° |
| 2026-04-24 19:29 | 46.39965 | 6.55268 | 8124 ft | 231 kts | 45° |
| 2026-04-24 19:29 | 46.41088 | 6.56945 | 8123 ft | 231 kts | 45° |
| 2026-04-24 19:29 | 46.42206 | 6.58616 | 8120 ft | 231 kts | 45° |
| 2026-04-24 19:30 | 46.43306 | 6.60262 | 8120 ft | 221 kts | 45° |
| 2026-04-24 19:30 | 46.44347 | 6.61821 | 8122 ft | 211 kts | 45° |
| 2026-04-24 19:30 | 46.45363 | 6.63343 | 8122 ft | 209 kts | 45° |
| 2026-04-24 19:30 | 46.46375 | 6.64860 | 8126 ft | 209 kts | 45° |
| 2026-04-24 19:31 | 46.47387 | 6.66377 | 8131 ft | 209 kts | 45° |
| 2026-04-24 19:31 | 46.48399 | 6.67895 | 8132 ft | 209 kts | 45° |
| 2026-04-24 19:31 | 46.49410 | 6.69413 | 8130 ft | 209 kts | 45° |
| 2026-04-24 19:31 | 46.50528 | 6.70737 | 8128 ft | 208 kts | 23° |
| 2026-04-24 19:32 | 46.51929 | 6.70983 | 8122 ft | 204 kts | 346° |
| 2026-04-24 19:32 | 46.53150 | 6.70065 | 8135 ft | 201 kts | 319° |
| 2026-04-24 19:32 | 46.54174 | 6.68671 | 8133 ft | 202 kts | 314° |
| 2026-04-24 19:32 | 46.55110 | 6.67158 | 8128 ft | 202 kts | 302° |
| 2026-04-24 19:33 | 46.55637 | 6.65284 | 8127 ft | 201 kts | 277° |
| 2026-04-24 19:33 | 46.55464 | 6.63298 | 8136 ft | 200 kts | 247° |
| 2026-04-24 19:33 | 46.54790 | 6.61528 | 8130 ft | 200 kts | 237° |
| 2026-04-24 19:33 | 46.54020 | 6.59869 | 8130 ft | 201 kts | 236° |
| 2026-04-24 19:34 | 46.53201 | 6.58155 | 8131 ft | 214 kts | 235° |
| 2026-04-24 19:34 | 46.52335 | 6.56341 | 8128 ft | 220 kts | 236° |
| 2026-04-24 19:34 | 46.51461 | 6.54499 | 8125 ft | 222 kts | 236° |
| 2026-04-24 19:34 | 46.50588 | 6.52659 | 8123 ft | 222 kts | 236° |
| 2026-04-24 19:35 | 46.49712 | 6.50808 | 8126 ft | 222 kts | 236° |
| 2026-04-24 19:35 | 46.48830 | 6.48948 | 7889 ft | 224 kts | 236° |
| 2026-04-24 19:35 | 46.47987 | 6.47048 | 7703 ft | 224 kts | 237° |
| 2026-04-24 19:35 | 46.47072 | 6.45233 | 7471 ft | 223 kts | 230° |
| 2026-04-24 19:36 | 46.46033 | 6.43614 | 7206 ft | 221 kts | 224° |
| 2026-04-24 19:36 | 46.44930 | 6.42067 | 6910 ft | 220 kts | 224° |
| 2026-04-24 19:36 | 46.43851 | 6.40491 | 6587 ft | 220 kts | 226° |
| 2026-04-24 19:36 | 46.42787 | 6.38898 | 6261 ft | 219 kts | 225° |
| 2026-04-24 19:37 | 46.41719 | 6.37317 | 5961 ft | 219 kts | 225° |
| 2026-04-24 19:37 | 46.40652 | 6.35741 | 5653 ft | 219 kts | 225° |
| 2026-04-24 19:37 | 46.39586 | 6.34163 | 5383 ft | 219 kts | 225° |
| 2026-04-24 19:37 | 46.38525 | 6.32594 | 5109 ft | 216 kts | 225° |
| 2026-04-24 19:38 | 46.37480 | 6.31049 | 4846 ft | 211 kts | 225° |
| 2026-04-24 19:38 | 46.36464 | 6.29548 | 4542 ft | 207 kts | 226° |
| 2026-04-24 19:38 | 46.35462 | 6.28068 | 4257 ft | 201 kts | 226° |
| 2026-04-24 19:38 | 46.34492 | 6.26635 | 3992 ft | 197 kts | 226° |
| 2026-04-24 19:39 | 46.33538 | 6.25227 | 3744 ft | 193 kts | 226° |
| 2026-04-24 19:39 | 46.32623 | 6.23876 | 3493 ft | 183 kts | 226° |
| 2026-04-24 19:39 | 46.31756 | 6.22597 | 3267 ft | 175 kts | 226° |
| 2026-04-24 19:39 | 46.30909 | 6.21348 | 3046 ft | 174 kts | 226° |
| 2026-04-24 19:40 | 46.30064 | 6.20102 | 2802 ft | 173 kts | 225° |
| 2026-04-24 19:40 | 46.29230 | 6.18873 | 2575 ft | 169 kts | 226° |
| 2026-04-24 19:40 | 46.28433 | 6.17700 | 2364 ft | 158 kts | 226° |
| 2026-04-24 19:40 | 46.27695 | 6.16612 | 2150 ft | 146 kts | 226° |
| 2026-04-24 19:41 | 46.27015 | 6.15611 | 1962 ft | 139 kts | 226° |
| 2026-04-24 19:41 | 46.26342 | 6.14618 | 1780 ft | 138 kts | 223° |
| 2026-04-24 19:41 | 46.25668 | 6.13626 | 1581 ft | 138 kts | 225° |
| 2026-04-24 19:41 | 46.24998 | 6.12640 | 1415 ft | 138 kts | 224° |
| 2026-04-24 19:42 | 46.24359 | 6.11707 | 1370 ft | 113 kts | 230° |
| 2026-04-24 19:42 | 46.23944 | 6.11095 | 1380 ft | 62 kts | 226° |
| 2026-04-24 19:42 | 46.23672 | 6.10769 | 1381 ft | 31 kts | 205° |
| 2026-04-24 19:42 | 46.23511 | 6.10693 | 1380 ft | 2 kts | 196° |
| 2026-04-24 19:45 | 46.23449 | 6.10668 | 1383 ft | 11 kts | 196° |
| 2026-04-24 19:45 | 46.23373 | 6.10603 | 1384 ft | 16 kts | 222° |
| 2026-04-24 19:46 | 46.23292 | 6.10484 | 1398 ft | 17 kts | 225° |
| 2026-04-24 19:46 | 46.23203 | 6.10354 | 1406 ft | 20 kts | 226° |
| 2026-04-24 19:46 | 46.23104 | 6.10195 | 1400 ft | 22 kts | 225° |
| 2026-04-24 19:46 | 46.22993 | 6.10033 | 1404 ft | 24 kts | 226° |
| 2026-04-24 19:47 | 46.22888 | 6.09896 | 1404 ft | 10 kts | 196° |
| 2026-04-24 19:47 | 46.22834 | 6.09941 | 1407 ft | 10 kts | 136° |
| 2026-04-24 19:47 | 46.22807 | 6.09979 | 1405 ft | 0 kts | 135° |